sensor_id;sensor_type;location;lat;lon;timestamp;temperature;humidity
23156;DHT22;11746;50.876;4.246;2023-11-19T00:01:07;13.70;99.90
23156;DHT22;11746;50.876;4.246;2023-11-19T00:03:33;13.70;99.90
23156;DHT22;11746;50.876;4.246;2023-11-19T00:05:59;13.70;99.90
23156;DHT22;11746;50.876;4.246;2023-11-19T00:08:25;13.70;99.90
23156;DHT22;11746;50.876;4.246;2023-11-19T00:10:50;13.70;99.90
23156;DHT22;11746;50.876;4.246;2023-11-19T00:13:16;13.70;99.90
23156;DHT22;11746;50.876;4.246;2023-11-19T00:15:44;13.60;99.90
23156;DHT22;11746;50.876;4.246;2023-11-19T00:18:10;13.60;99.90
23156;DHT22;11746;50.876;4.246;2023-11-19T00:20:36;13.70;99.90
23156;DHT22;11746;50.876;4.246;2023-11-19T00:23:06;13.60;99.90
23156;DHT22;11746;50.876;4.246;2023-11-19T00:25:34;13.60;99.90
23156;DHT22;11746;50.876;4.246;2023-11-19T00:28:00;13.60;99.90
23156;DHT22;11746;50.876;4.246;2023-11-19T00:30:25;13.70;99.90
23156;DHT22;11746;50.876;4.246;2023-11-19T00:32:51;13.70;99.90
23156;DHT22;11746;50.876;4.246;2023-11-19T00:35:19;13.70;99.90
23156;DHT22;11746;50.876;4.246;2023-11-19T00:37:44;13.70;99.90
23156;DHT22;11746;50.876;4.246;2023-11-19T00:40:13;13.70;99.90
23156;DHT22;11746;50.876;4.246;2023-11-19T00:42:39;13.70;99.90
23156;DHT22;11746;50.876;4.246;2023-11-19T00:45:05;13.70;99.90
23156;DHT22;11746;50.876;4.246;2023-11-19T00:47:35;13.70;99.90
23156;DHT22;11746;50.876;4.246;2023-11-19T00:50:02;13.70;99.90
23156;DHT22;11746;50.876;4.246;2023-11-19T00:52:32;13.70;99.90
23156;DHT22;11746;50.876;4.246;2023-11-19T00:54:58;13.70;99.90
23156;DHT22;11746;50.876;4.246;2023-11-19T00:57:26;13.70;99.90
23156;DHT22;11746;50.876;4.246;2023-11-19T00:59:52;13.70;99.90
23156;DHT22;11746;50.876;4.246;2023-11-19T01:02:18;13.80;99.90
23156;DHT22;11746;50.876;4.246;2023-11-19T01:04:43;13.70;99.90
23156;DHT22;11746;50.876;4.246;2023-11-19T01:07:11;13.70;99.90
23156;DHT22;11746;50.876;4.246;2023-11-19T01:09:38;13.80;99.90
23156;DHT22;11746;50.876;4.246;2023-11-19T01:12:06;13.80;99.90
23156;DHT22;11746;50.876;4.246;2023-11-19T01:14:32;13.80;99.90
23156;DHT22;11746;50.876;4.246;2023-11-19T01:16:57;13.80;99.90
23156;DHT22;11746;50.876;4.246;2023-11-19T01:19:23;13.70;99.90
23156;DHT22;11746;50.876;4.246;2023-11-19T01:21:52;13.60;99.90
23156;DHT22;11746;50.876;4.246;2023-11-19T01:24:18;13.60;99.90
23156;DHT22;11746;50.876;4.246;2023-11-19T01:26:44;13.50;99.90
23156;DHT22;11746;50.876;4.246;2023-11-19T01:29:14;13.50;99.90
23156;DHT22;11746;50.876;4.246;2023-11-19T01:31:41;13.40;99.90
23156;DHT22;11746;50.876;4.246;2023-11-19T01:34:09;13.30;99.90
23156;DHT22;11746;50.876;4.246;2023-11-19T01:36:35;13.40;99.90
23156;DHT22;11746;50.876;4.246;2023-11-19T01:39:01;13.30;99.90
23156;DHT22;11746;50.876;4.246;2023-11-19T01:41:29;13.20;99.90
23156;DHT22;11746;50.876;4.246;2023-11-19T01:43:59;13.30;99.90
23156;DHT22;11746;50.876;4.246;2023-11-19T01:46:26;13.40;99.90
23156;DHT22;11746;50.876;4.246;2023-11-19T01:48:52;13.50;99.90
23156;DHT22;11746;50.876;4.246;2023-11-19T01:51:19;13.50;99.90
23156;DHT22;11746;50.876;4.246;2023-11-19T01:53:47;13.50;99.90
23156;DHT22;11746;50.876;4.246;2023-11-19T01:56:14;13.50;99.90
23156;DHT22;11746;50.876;4.246;2023-11-19T01:58:44;13.60;99.90
23156;DHT22;11746;50.876;4.246;2023-11-19T02:01:13;13.50;99.90
23156;DHT22;11746;50.876;4.246;2023-11-19T02:03:42;13.40;99.90
23156;DHT22;11746;50.876;4.246;2023-11-19T02:06:13;13.40;99.90
23156;DHT22;11746;50.876;4.246;2023-11-19T02:08:39;13.50;99.90
23156;DHT22;11746;50.876;4.246;2023-11-19T02:11:05;13.40;99.90
23156;DHT22;11746;50.876;4.246;2023-11-19T02:13:32;13.40;99.90
23156;DHT22;11746;50.876;4.246;2023-11-19T02:15:59;13.40;99.90
23156;DHT22;11746;50.876;4.246;2023-11-19T02:18:28;13.40;99.90
23156;DHT22;11746;50.876;4.246;2023-11-19T02:20:57;13.30;99.90
23156;DHT22;11746;50.876;4.246;2023-11-19T02:23:27;13.40;99.90
23156;DHT22;11746;50.876;4.246;2023-11-19T02:26:14;13.40;99.90
23156;DHT22;11746;50.876;4.246;2023-11-19T02:28:43;13.40;99.90
23156;DHT22;11746;50.876;4.246;2023-11-19T02:31:10;13.40;99.90
23156;DHT22;11746;50.876;4.246;2023-11-19T02:33:37;13.30;99.90
23156;DHT22;11746;50.876;4.246;2023-11-19T02:36:06;13.30;99.90
23156;DHT22;11746;50.876;4.246;2023-11-19T02:38:35;13.30;99.90
23156;DHT22;11746;50.876;4.246;2023-11-19T02:41:05;13.20;99.90
23156;DHT22;11746;50.876;4.246;2023-11-19T02:43:32;13.30;99.90
23156;DHT22;11746;50.876;4.246;2023-11-19T02:46:04;13.20;99.90
23156;DHT22;11746;50.876;4.246;2023-11-19T02:48:33;13.20;99.90
23156;DHT22;11746;50.876;4.246;2023-11-19T02:51:02;13.20;99.90
23156;DHT22;11746;50.876;4.246;2023-11-19T02:53:32;13.20;99.90
23156;DHT22;11746;50.876;4.246;2023-11-19T02:56:00;13.10;99.90
23156;DHT22;11746;50.876;4.246;2023-11-19T02:58:37;13.20;99.90
23156;DHT22;11746;50.876;4.246;2023-11-19T03:01:02;13.10;99.90
23156;DHT22;11746;50.876;4.246;2023-11-19T03:03:40;13.10;99.90
23156;DHT22;11746;50.876;4.246;2023-11-19T03:06:07;13.00;99.90
23156;DHT22;11746;50.876;4.246;2023-11-19T03:08:36;13.00;99.90
23156;DHT22;11746;50.876;4.246;2023-11-19T03:11:02;13.10;99.90
23156;DHT22;11746;50.876;4.246;2023-11-19T03:13:30;13.00;99.90
23156;DHT22;11746;50.876;4.246;2023-11-19T03:15:58;13.00;99.90
23156;DHT22;11746;50.876;4.246;2023-11-19T03:18:24;13.00;99.90
23156;DHT22;11746;50.876;4.246;2023-11-19T03:20:49;12.90;99.90
23156;DHT22;11746;50.876;4.246;2023-11-19T03:23:20;12.90;99.90
23156;DHT22;11746;50.876;4.246;2023-11-19T03:25:45;12.90;99.90
23156;DHT22;11746;50.876;4.246;2023-11-19T03:28:11;12.80;99.90
23156;DHT22;11746;50.876;4.246;2023-11-19T03:30:36;12.80;99.90
23156;DHT22;11746;50.876;4.246;2023-11-19T03:33:07;12.80;99.90
23156;DHT22;11746;50.876;4.246;2023-11-19T03:35:35;12.80;99.90
23156;DHT22;11746;50.876;4.246;2023-11-19T03:38:03;12.70;99.90
23156;DHT22;11746;50.876;4.246;2023-11-19T03:40:28;12.70;99.90
23156;DHT22;11746;50.876;4.246;2023-11-19T03:42:56;12.80;99.90
23156;DHT22;11746;50.876;4.246;2023-11-19T03:45:23;12.70;99.90
23156;DHT22;11746;50.876;4.246;2023-11-19T03:47:49;12.60;99.90
23156;DHT22;11746;50.876;4.246;2023-11-19T03:50:15;12.70;99.90
23156;DHT22;11746;50.876;4.246;2023-11-19T03:52:41;12.60;99.90
23156;DHT22;11746;50.876;4.246;2023-11-19T03:55:07;12.60;99.90
23156;DHT22;11746;50.876;4.246;2023-11-19T03:57:34;12.60;99.90
23156;DHT22;11746;50.876;4.246;2023-11-19T04:00:00;12.60;99.90
23156;DHT22;11746;50.876;4.246;2023-11-19T04:02:31;12.60;99.90
23156;DHT22;11746;50.876;4.246;2023-11-19T04:04:57;12.60;99.90
23156;DHT22;11746;50.876;4.246;2023-11-19T04:07:22;12.50;99.90
23156;DHT22;11746;50.876;4.246;2023-11-19T04:09:48;12.60;99.90
23156;DHT22;11746;50.876;4.246;2023-11-19T04:12:16;12.60;99.90
23156;DHT22;11746;50.876;4.246;2023-11-19T04:14:44;12.60;99.90
23156;DHT22;11746;50.876;4.246;2023-11-19T04:17:12;12.60;99.90
23156;DHT22;11746;50.876;4.246;2023-11-19T04:19:38;12.60;99.90
23156;DHT22;11746;50.876;4.246;2023-11-19T04:22:07;12.60;99.90
23156;DHT22;11746;50.876;4.246;2023-11-19T04:24:33;12.60;99.90
23156;DHT22;11746;50.876;4.246;2023-11-19T04:26:59;12.60;99.90
23156;DHT22;11746;50.876;4.246;2023-11-19T04:29:27;12.60;99.90
23156;DHT22;11746;50.876;4.246;2023-11-19T04:31:55;12.60;99.90
23156;DHT22;11746;50.876;4.246;2023-11-19T04:34:23;12.50;99.90
23156;DHT22;11746;50.876;4.246;2023-11-19T04:36:49;12.50;99.90
23156;DHT22;11746;50.876;4.246;2023-11-19T04:39:17;12.50;99.90
23156;DHT22;11746;50.876;4.246;2023-11-19T04:41:50;12.50;99.90
23156;DHT22;11746;50.876;4.246;2023-11-19T04:44:19;12.50;99.90
23156;DHT22;11746;50.876;4.246;2023-11-19T04:46:45;12.40;99.90
23156;DHT22;11746;50.876;4.246;2023-11-19T04:49:12;12.40;99.90
23156;DHT22;11746;50.876;4.246;2023-11-19T04:51:43;12.40;99.90
23156;DHT22;11746;50.876;4.246;2023-11-19T04:54:10;12.40;99.90
23156;DHT22;11746;50.876;4.246;2023-11-19T04:56:44;12.50;99.90
23156;DHT22;11746;50.876;4.246;2023-11-19T04:59:10;12.50;99.90
23156;DHT22;11746;50.876;4.246;2023-11-19T05:01:35;12.40;99.90
23156;DHT22;11746;50.876;4.246;2023-11-19T05:04:01;12.40;99.90
23156;DHT22;11746;50.876;4.246;2023-11-19T05:06:28;12.40;99.90
23156;DHT22;11746;50.876;4.246;2023-11-19T05:08:58;12.30;99.90
23156;DHT22;11746;50.876;4.246;2023-11-19T05:11:24;12.30;99.90
23156;DHT22;11746;50.876;4.246;2023-11-19T05:13:49;12.30;99.90
23156;DHT22;11746;50.876;4.246;2023-11-19T05:16:18;12.30;99.90
23156;DHT22;11746;50.876;4.246;2023-11-19T05:18:44;12.20;99.90
23156;DHT22;11746;50.876;4.246;2023-11-19T05:21:10;12.30;99.90
23156;DHT22;11746;50.876;4.246;2023-11-19T05:23:40;12.30;99.90
23156;DHT22;11746;50.876;4.246;2023-11-19T05:26:08;12.40;99.90
23156;DHT22;11746;50.876;4.246;2023-11-19T05:28:38;12.40;99.90
23156;DHT22;11746;50.876;4.246;2023-11-19T05:31:05;12.40;99.90
23156;DHT22;11746;50.876;4.246;2023-11-19T05:33:31;12.40;99.90
23156;DHT22;11746;50.876;4.246;2023-11-19T05:35:57;12.30;99.90
23156;DHT22;11746;50.876;4.246;2023-11-19T05:38:22;12.20;99.90
23156;DHT22;11746;50.876;4.246;2023-11-19T05:40:50;12.20;99.90
23156;DHT22;11746;50.876;4.246;2023-11-19T05:43:15;12.20;99.90
23156;DHT22;11746;50.876;4.246;2023-11-19T05:45:42;12.20;99.90
23156;DHT22;11746;50.876;4.246;2023-11-19T05:48:08;12.20;99.90
23156;DHT22;11746;50.876;4.246;2023-11-19T05:50:37;12.30;99.90
23156;DHT22;11746;50.876;4.246;2023-11-19T05:53:02;12.30;99.90
23156;DHT22;11746;50.876;4.246;2023-11-19T05:55:33;12.30;99.90
23156;DHT22;11746;50.876;4.246;2023-11-19T05:57:59;12.30;99.90
23156;DHT22;11746;50.876;4.246;2023-11-19T06:00:31;12.20;99.90
23156;DHT22;11746;50.876;4.246;2023-11-19T06:02:56;12.20;99.90
23156;DHT22;11746;50.876;4.246;2023-11-19T06:05:22;12.20;99.90
23156;DHT22;11746;50.876;4.246;2023-11-19T06:07:48;12.20;99.90
23156;DHT22;11746;50.876;4.246;2023-11-19T06:10:13;12.20;99.90
23156;DHT22;11746;50.876;4.246;2023-11-19T06:12:42;12.10;99.90
23156;DHT22;11746;50.876;4.246;2023-11-19T06:15:08;12.00;99.90
23156;DHT22;11746;50.876;4.246;2023-11-19T06:17:34;11.90;99.90
23156;DHT22;11746;50.876;4.246;2023-11-19T06:20:00;12.00;99.90
23156;DHT22;11746;50.876;4.246;2023-11-19T06:22:25;11.90;99.90
23156;DHT22;11746;50.876;4.246;2023-11-19T06:24:58;12.00;99.90
23156;DHT22;11746;50.876;4.246;2023-11-19T06:27:26;12.00;99.90
23156;DHT22;11746;50.876;4.246;2023-11-19T06:29:54;11.90;99.90
23156;DHT22;11746;50.876;4.246;2023-11-19T06:32:20;11.90;99.90
23156;DHT22;11746;50.876;4.246;2023-11-19T06:34:48;11.90;99.90
23156;DHT22;11746;50.876;4.246;2023-11-19T06:37:15;11.90;99.90
23156;DHT22;11746;50.876;4.246;2023-11-19T06:39:43;11.80;99.90
23156;DHT22;11746;50.876;4.246;2023-11-19T06:42:09;11.80;99.90
23156;DHT22;11746;50.876;4.246;2023-11-19T06:44:35;11.80;99.90
23156;DHT22;11746;50.876;4.246;2023-11-19T06:47:00;11.80;99.90
23156;DHT22;11746;50.876;4.246;2023-11-19T06:49:26;11.80;99.90
23156;DHT22;11746;50.876;4.246;2023-11-19T06:51:51;11.80;99.90
23156;DHT22;11746;50.876;4.246;2023-11-19T06:54:17;11.70;99.90
23156;DHT22;11746;50.876;4.246;2023-11-19T06:56:48;11.70;99.90
23156;DHT22;11746;50.876;4.246;2023-11-19T06:59:17;11.70;99.90
23156;DHT22;11746;50.876;4.246;2023-11-19T07:01:43;11.60;99.90
23156;DHT22;11746;50.876;4.246;2023-11-19T07:04:11;11.60;99.90
23156;DHT22;11746;50.876;4.246;2023-11-19T07:06:38;11.70;99.90
23156;DHT22;11746;50.876;4.246;2023-11-19T07:09:04;11.70;99.90
23156;DHT22;11746;50.876;4.246;2023-11-19T07:11:39;11.70;99.90
23156;DHT22;11746;50.876;4.246;2023-11-19T07:14:06;11.70;99.90
23156;DHT22;11746;50.876;4.246;2023-11-19T07:16:35;11.80;99.90
23156;DHT22;11746;50.876;4.246;2023-11-19T07:19:02;11.80;99.90
23156;DHT22;11746;50.876;4.246;2023-11-19T07:21:28;11.80;99.90
23156;DHT22;11746;50.876;4.246;2023-11-19T07:23:59;11.80;99.90
23156;DHT22;11746;50.876;4.246;2023-11-19T07:26:25;11.80;99.90
23156;DHT22;11746;50.876;4.246;2023-11-19T07:28:51;11.70;99.90
23156;DHT22;11746;50.876;4.246;2023-11-19T07:31:17;11.60;99.90
23156;DHT22;11746;50.876;4.246;2023-11-19T07:33:48;11.60;99.90
23156;DHT22;11746;50.876;4.246;2023-11-19T07:36:14;11.60;99.90
23156;DHT22;11746;50.876;4.246;2023-11-19T07:38:42;11.60;99.90
23156;DHT22;11746;50.876;4.246;2023-11-19T07:41:08;11.60;99.90
23156;DHT22;11746;50.876;4.246;2023-11-19T07:43:44;11.60;99.90
23156;DHT22;11746;50.876;4.246;2023-11-19T07:46:13;11.60;99.90
23156;DHT22;11746;50.876;4.246;2023-11-19T07:48:44;11.70;99.90
23156;DHT22;11746;50.876;4.246;2023-11-19T07:51:11;11.70;99.90
23156;DHT22;11746;50.876;4.246;2023-11-19T07:53:37;11.60;99.90
23156;DHT22;11746;50.876;4.246;2023-11-19T07:56:07;11.60;99.90
23156;DHT22;11746;50.876;4.246;2023-11-19T07:58:32;11.60;99.90
23156;DHT22;11746;50.876;4.246;2023-11-19T08:00:58;11.70;99.90
23156;DHT22;11746;50.876;4.246;2023-11-19T08:03:24;11.70;99.90
23156;DHT22;11746;50.876;4.246;2023-11-19T08:05:50;11.70;99.90
23156;DHT22;11746;50.876;4.246;2023-11-19T08:08:17;11.70;99.90
23156;DHT22;11746;50.876;4.246;2023-11-19T08:10:43;11.70;99.90
23156;DHT22;11746;50.876;4.246;2023-11-19T08:13:17;11.70;99.90
23156;DHT22;11746;50.876;4.246;2023-11-19T08:15:46;11.80;99.90
23156;DHT22;11746;50.876;4.246;2023-11-19T08:18:14;11.70;99.90
23156;DHT22;11746;50.876;4.246;2023-11-19T08:20:39;11.80;99.90
23156;DHT22;11746;50.876;4.246;2023-11-19T08:23:08;11.80;99.90
23156;DHT22;11746;50.876;4.246;2023-11-19T08:25:34;11.80;99.90
23156;DHT22;11746;50.876;4.246;2023-11-19T08:28:00;11.80;99.90
23156;DHT22;11746;50.876;4.246;2023-11-19T08:30:26;11.90;99.90
23156;DHT22;11746;50.876;4.246;2023-11-19T08:32:55;11.80;99.90
23156;DHT22;11746;50.876;4.246;2023-11-19T08:35:20;11.90;99.90
23156;DHT22;11746;50.876;4.246;2023-11-19T08:37:48;12.00;99.90
23156;DHT22;11746;50.876;4.246;2023-11-19T08:40:16;12.00;99.90
23156;DHT22;11746;50.876;4.246;2023-11-19T08:42:42;12.00;99.90
23156;DHT22;11746;50.876;4.246;2023-11-19T08:45:10;11.90;99.90
23156;DHT22;11746;50.876;4.246;2023-11-19T08:47:38;11.80;99.90
23156;DHT22;11746;50.876;4.246;2023-11-19T08:50:06;11.70;99.90
23156;DHT22;11746;50.876;4.246;2023-11-19T08:52:31;11.70;99.90
23156;DHT22;11746;50.876;4.246;2023-11-19T08:54:59;11.60;99.90
23156;DHT22;11746;50.876;4.246;2023-11-19T08:57:25;11.70;99.90
23156;DHT22;11746;50.876;4.246;2023-11-19T08:59:53;11.60;99.90
23156;DHT22;11746;50.876;4.246;2023-11-19T09:02:18;11.70;99.90
23156;DHT22;11746;50.876;4.246;2023-11-19T09:04:46;11.70;99.90
23156;DHT22;11746;50.876;4.246;2023-11-19T09:07:14;11.80;99.90
23156;DHT22;11746;50.876;4.246;2023-11-19T09:09:40;11.80;99.90
23156;DHT22;11746;50.876;4.246;2023-11-19T09:12:06;11.90;99.90
23156;DHT22;11746;50.876;4.246;2023-11-19T09:14:31;12.00;99.90
23156;DHT22;11746;50.876;4.246;2023-11-19T09:16:57;12.10;99.90
23156;DHT22;11746;50.876;4.246;2023-11-19T09:19:24;12.20;99.90
23156;DHT22;11746;50.876;4.246;2023-11-19T09:21:49;12.20;99.90
23156;DHT22;11746;50.876;4.246;2023-11-19T09:24:15;12.20;99.90
23156;DHT22;11746;50.876;4.246;2023-11-19T09:26:43;12.20;99.90
23156;DHT22;11746;50.876;4.246;2023-11-19T09:29:09;12.20;99.90
23156;DHT22;11746;50.876;4.246;2023-11-19T09:31:42;12.20;99.90
23156;DHT22;11746;50.876;4.246;2023-11-19T09:34:10;12.30;99.90
23156;DHT22;11746;50.876;4.246;2023-11-19T09:36:38;12.30;99.90
23156;DHT22;11746;50.876;4.246;2023-11-19T09:39:11;12.30;99.90
23156;DHT22;11746;50.876;4.246;2023-11-19T09:41:36;12.40;99.90
23156;DHT22;11746;50.876;4.246;2023-11-19T09:44:02;12.40;99.90
23156;DHT22;11746;50.876;4.246;2023-11-19T09:46:31;12.50;99.90
23156;DHT22;11746;50.876;4.246;2023-11-19T09:48:57;12.50;99.90
23156;DHT22;11746;50.876;4.246;2023-11-19T09:51:25;12.60;99.90
23156;DHT22;11746;50.876;4.246;2023-11-19T09:53:53;12.70;99.90
23156;DHT22;11746;50.876;4.246;2023-11-19T09:56:19;12.70;99.90
23156;DHT22;11746;50.876;4.246;2023-11-19T09:58:45;12.70;99.90
23156;DHT22;11746;50.876;4.246;2023-11-19T10:01:12;12.60;99.90
23156;DHT22;11746;50.876;4.246;2023-11-19T10:03:39;12.70;99.90
23156;DHT22;11746;50.876;4.246;2023-11-19T10:06:09;12.70;99.90
23156;DHT22;11746;50.876;4.246;2023-11-19T10:08:39;12.70;99.90
23156;DHT22;11746;50.876;4.246;2023-11-19T10:11:08;12.70;99.90
23156;DHT22;11746;50.876;4.246;2023-11-19T10:13:37;12.70;99.90
23156;DHT22;11746;50.876;4.246;2023-11-19T10:16:08;12.70;99.90
23156;DHT22;11746;50.876;4.246;2023-11-19T10:18:35;12.80;99.90
23156;DHT22;11746;50.876;4.246;2023-11-19T10:21:06;12.90;99.90
23156;DHT22;11746;50.876;4.246;2023-11-19T10:26:18;13.00;99.90
23156;DHT22;11746;50.876;4.246;2023-11-19T10:28:46;13.10;99.90
23156;DHT22;11746;50.876;4.246;2023-11-19T10:31:14;13.10;99.90
23156;DHT22;11746;50.876;4.246;2023-11-19T10:33:41;13.00;99.90
23156;DHT22;11746;50.876;4.246;2023-11-19T10:36:07;13.00;99.90
23156;DHT22;11746;50.876;4.246;2023-11-19T10:38:35;12.90;99.90
23156;DHT22;11746;50.876;4.246;2023-11-19T10:41:01;12.90;99.90
23156;DHT22;11746;50.876;4.246;2023-11-19T10:43:28;12.90;99.90
23156;DHT22;11746;50.876;4.246;2023-11-19T10:45:54;12.90;99.90
23156;DHT22;11746;50.876;4.246;2023-11-19T10:48:33;12.90;99.90
23156;DHT22;11746;50.876;4.246;2023-11-19T10:51:01;12.90;99.90
23156;DHT22;11746;50.876;4.246;2023-11-19T10:53:28;13.00;99.90
23156;DHT22;11746;50.876;4.246;2023-11-19T10:55:57;13.10;99.90
23156;DHT22;11746;50.876;4.246;2023-11-19T10:58:27;13.30;99.90
23156;DHT22;11746;50.876;4.246;2023-11-19T11:01:03;13.40;99.90
23156;DHT22;11746;50.876;4.246;2023-11-19T11:03:41;13.50;99.90
23156;DHT22;11746;50.876;4.246;2023-11-19T11:06:08;13.50;99.90
23156;DHT22;11746;50.876;4.246;2023-11-19T11:08:36;13.40;99.90
23156;DHT22;11746;50.876;4.246;2023-11-19T11:11:06;13.20;99.90
23156;DHT22;11746;50.876;4.246;2023-11-19T11:13:39;13.10;99.90
23156;DHT22;11746;50.876;4.246;2023-11-19T11:16:07;13.00;99.90
23156;DHT22;11746;50.876;4.246;2023-11-19T11:18:33;12.90;99.90
23156;DHT22;11746;50.876;4.246;2023-11-19T11:29:04;13.10;99.90
23156;DHT22;11746;50.876;4.246;2023-11-19T11:31:39;13.20;99.90
23156;DHT22;11746;50.876;4.246;2023-11-19T11:39:36;13.30;99.90
23156;DHT22;11746;50.876;4.246;2023-11-19T11:45:13;13.40;99.90
23156;DHT22;11746;50.876;4.246;2023-11-19T11:55:37;14.00;99.90
23156;DHT22;11746;50.876;4.246;2023-11-19T11:58:21;14.00;99.90
23156;DHT22;11746;50.876;4.246;2023-11-19T12:00:48;13.90;99.90
23156;DHT22;11746;50.876;4.246;2023-11-19T12:03:14;14.00;99.90
23156;DHT22;11746;50.876;4.246;2023-11-19T12:05:44;14.00;99.90
23156;DHT22;11746;50.876;4.246;2023-11-19T12:08:11;14.00;99.90
23156;DHT22;11746;50.876;4.246;2023-11-19T12:13:14;13.70;99.90
23156;DHT22;11746;50.876;4.246;2023-11-19T12:20:51;13.20;99.90
23156;DHT22;11746;50.876;4.246;2023-11-19T12:23:17;13.20;99.90
23156;DHT22;11746;50.876;4.246;2023-11-19T12:25:43;13.10;99.90
23156;DHT22;11746;50.876;4.246;2023-11-19T12:28:14;13.00;99.90
23156;DHT22;11746;50.876;4.246;2023-11-19T12:30:42;13.00;99.90
23156;DHT22;11746;50.876;4.246;2023-11-19T12:33:12;12.80;99.90
23156;DHT22;11746;50.876;4.246;2023-11-19T12:35:44;12.70;99.90
23156;DHT22;11746;50.876;4.246;2023-11-19T12:38:24;12.70;99.90
23156;DHT22;11746;50.876;4.246;2023-11-19T12:43:31;12.80;99.90
23156;DHT22;11746;50.876;4.246;2023-11-19T12:46:00;12.80;99.90
23156;DHT22;11746;50.876;4.246;2023-11-19T12:48:28;12.90;99.90
23156;DHT22;11746;50.876;4.246;2023-11-19T12:50:57;12.90;99.90
23156;DHT22;11746;50.876;4.246;2023-11-19T12:53:25;12.90;99.90
23156;DHT22;11746;50.876;4.246;2023-11-19T12:55:54;12.90;99.90
23156;DHT22;11746;50.876;4.246;2023-11-19T12:58:33;12.90;99.90
23156;DHT22;11746;50.876;4.246;2023-11-19T13:01:02;13.00;99.90
23156;DHT22;11746;50.876;4.246;2023-11-19T13:06:02;13.10;99.90
23156;DHT22;11746;50.876;4.246;2023-11-19T13:08:35;13.10;99.90
23156;DHT22;11746;50.876;4.246;2023-11-19T13:11:03;13.10;99.90
23156;DHT22;11746;50.876;4.246;2023-11-19T13:13:31;13.10;99.90
23156;DHT22;11746;50.876;4.246;2023-11-19T13:16:04;13.30;99.90
23156;DHT22;11746;50.876;4.246;2023-11-19T13:18:34;13.50;99.90
23156;DHT22;11746;50.876;4.246;2023-11-19T13:21:02;13.60;99.90
23156;DHT22;11746;50.876;4.246;2023-11-19T13:23:28;13.70;99.90
23156;DHT22;11746;50.876;4.246;2023-11-19T13:25:53;13.50;99.90
23156;DHT22;11746;50.876;4.246;2023-11-19T13:28:23;13.30;99.90
23156;DHT22;11746;50.876;4.246;2023-11-19T13:30:50;13.30;99.90
23156;DHT22;11746;50.876;4.246;2023-11-19T13:33:18;13.30;99.90
23156;DHT22;11746;50.876;4.246;2023-11-19T13:35:46;13.20;99.90
23156;DHT22;11746;50.876;4.246;2023-11-19T13:38:17;13.20;99.90
23156;DHT22;11746;50.876;4.246;2023-11-19T13:40:43;13.40;99.90
23156;DHT22;11746;50.876;4.246;2023-11-19T13:43:08;13.50;99.90
23156;DHT22;11746;50.876;4.246;2023-11-19T13:45:34;13.40;99.90
23156;DHT22;11746;50.876;4.246;2023-11-19T13:48:02;13.60;99.90
23156;DHT22;11746;50.876;4.246;2023-11-19T13:50:27;13.60;99.90
23156;DHT22;11746;50.876;4.246;2023-11-19T13:52:54;13.60;99.90
23156;DHT22;11746;50.876;4.246;2023-11-19T13:55:23;13.40;99.90
23156;DHT22;11746;50.876;4.246;2023-11-19T13:57:48;13.20;99.90
23156;DHT22;11746;50.876;4.246;2023-11-19T14:00:14;13.20;99.90
23156;DHT22;11746;50.876;4.246;2023-11-19T14:02:46;13.10;99.90
23156;DHT22;11746;50.876;4.246;2023-11-19T14:05:15;13.10;99.90
23156;DHT22;11746;50.876;4.246;2023-11-19T14:07:45;13.10;99.90
23156;DHT22;11746;50.876;4.246;2023-11-19T14:10:16;13.10;99.90
23156;DHT22;11746;50.876;4.246;2023-11-19T14:12:42;13.00;99.90
23156;DHT22;11746;50.876;4.246;2023-11-19T14:15:11;12.90;99.90
23156;DHT22;11746;50.876;4.246;2023-11-19T14:17:42;12.90;99.90
23156;DHT22;11746;50.876;4.246;2023-11-19T14:20:08;12.80;99.90
23156;DHT22;11746;50.876;4.246;2023-11-19T14:22:41;12.70;99.90
23156;DHT22;11746;50.876;4.246;2023-11-19T14:25:10;12.70;99.90
23156;DHT22;11746;50.876;4.246;2023-11-19T14:27:41;12.60;99.90
23156;DHT22;11746;50.876;4.246;2023-11-19T14:30:08;12.60;99.90
23156;DHT22;11746;50.876;4.246;2023-11-19T14:32:42;12.50;99.90
23156;DHT22;11746;50.876;4.246;2023-11-19T14:35:10;12.40;99.90
23156;DHT22;11746;50.876;4.246;2023-11-19T14:37:35;12.40;99.90
23156;DHT22;11746;50.876;4.246;2023-11-19T14:40:01;12.30;99.90
23156;DHT22;11746;50.876;4.246;2023-11-19T14:42:31;12.50;99.90
23156;DHT22;11746;50.876;4.246;2023-11-19T14:44:57;12.40;99.90
23156;DHT22;11746;50.876;4.246;2023-11-19T14:47:22;12.40;99.90
23156;DHT22;11746;50.876;4.246;2023-11-19T14:49:50;12.40;99.90
23156;DHT22;11746;50.876;4.246;2023-11-19T14:52:16;12.40;99.90
23156;DHT22;11746;50.876;4.246;2023-11-19T14:54:42;12.50;99.90
23156;DHT22;11746;50.876;4.246;2023-11-19T14:57:07;12.50;99.90
23156;DHT22;11746;50.876;4.246;2023-11-19T14:59:36;12.50;99.90
23156;DHT22;11746;50.876;4.246;2023-11-19T15:02:02;12.50;99.90
23156;DHT22;11746;50.876;4.246;2023-11-19T15:04:31;12.50;99.90
23156;DHT22;11746;50.876;4.246;2023-11-19T15:06:57;12.50;99.90
23156;DHT22;11746;50.876;4.246;2023-11-19T15:09:23;12.40;99.90
23156;DHT22;11746;50.876;4.246;2023-11-19T15:11:54;12.50;99.90
23156;DHT22;11746;50.876;4.246;2023-11-19T15:14:19;12.40;99.90
23156;DHT22;11746;50.876;4.246;2023-11-19T15:16:48;12.50;99.90
23156;DHT22;11746;50.876;4.246;2023-11-19T15:19:19;12.50;99.90
23156;DHT22;11746;50.876;4.246;2023-11-19T15:21:47;12.40;99.90
23156;DHT22;11746;50.876;4.246;2023-11-19T15:24:13;12.40;99.90
23156;DHT22;11746;50.876;4.246;2023-11-19T15:26:41;12.50;99.90
23156;DHT22;11746;50.876;4.246;2023-11-19T15:29:09;12.50;99.90
23156;DHT22;11746;50.876;4.246;2023-11-19T15:31:37;12.50;99.90
23156;DHT22;11746;50.876;4.246;2023-11-19T15:34:05;12.50;99.90
23156;DHT22;11746;50.876;4.246;2023-11-19T15:36:34;12.50;99.90
23156;DHT22;11746;50.876;4.246;2023-11-19T15:39:01;12.50;99.90
23156;DHT22;11746;50.876;4.246;2023-11-19T15:41:27;12.60;99.90
23156;DHT22;11746;50.876;4.246;2023-11-19T15:43:55;12.60;99.90
23156;DHT22;11746;50.876;4.246;2023-11-19T15:46:21;12.70;99.90
23156;DHT22;11746;50.876;4.246;2023-11-19T15:48:46;12.70;99.90
23156;DHT22;11746;50.876;4.246;2023-11-19T15:51:16;12.60;99.90
23156;DHT22;11746;50.876;4.246;2023-11-19T15:53:43;12.50;99.90
23156;DHT22;11746;50.876;4.246;2023-11-19T15:56:11;12.30;99.90
23156;DHT22;11746;50.876;4.246;2023-11-19T15:58:39;12.30;99.90
23156;DHT22;11746;50.876;4.246;2023-11-19T16:01:05;12.20;99.90
23156;DHT22;11746;50.876;4.246;2023-11-19T16:03:31;12.20;99.90
23156;DHT22;11746;50.876;4.246;2023-11-19T16:06:01;12.20;99.90
23156;DHT22;11746;50.876;4.246;2023-11-19T16:08:29;12.20;99.90
23156;DHT22;11746;50.876;4.246;2023-11-19T16:10:55;12.20;99.90
23156;DHT22;11746;50.876;4.246;2023-11-19T16:13:28;12.10;99.90